Time;durP1;ratioP1;P1;durP2;ratioP2;P2;SDS_P1;SDS_P2;PMS_P1;PMS_P2;Temp;Humidity;BMP_temperature;BMP_pressure;BME280_temperature;BME280_humidity;BME280_pressure;Samples;Min_cycle;Max_cycle;Signal;HPM_P1;HPM_P2
2023/11/06 00:01:24;;;;;;;10.57;2.05;;;9.80;99.90;;;;;;20720429;28;20038;-40
2023/11/06 00:11:24;;;;;;;11.57;3.15;;;10.00;99.90;;;;;;20727116;28;20049;-40
2023/11/06 00:21:25;;;;;;;5.57;1.50;;;10.10;99.90;;;;;;20726055;28;20387;-40
2023/11/06 00:31:26;;;;;;;8.73;1.27;;;10.10;99.90;;;;;;20731184;28;20045;-40
2023/11/06 00:41:27;;;;;;;6.25;1.63;;;10.10;99.90;;;;;;20726560;28;20045;-41
2023/11/06 00:51:27;;;;;;;5.55;1.35;;;10.00;99.90;;;;;;20729335;28;20060;-40
2023/11/06 01:01:28;;;;;;;8.25;1.10;;;10.10;99.90;;;;;;20727920;28;20512;-40
2023/11/06 01:11:29;;;;;;;7.05;1.17;;;10.10;99.90;;;;;;20725420;28;20170;-40
2023/11/06 01:21:31;;;;;;;9.20;1.67;;;10.00;99.90;;;;;;20724506;28;20478;-40
2023/11/06 01:31:32;;;;;;;5.85;1.27;;;10.00;99.90;;;;;;20723056;28;20072;-40
2023/11/06 01:41:32;;;;;;;4.93;1.90;;;9.90;99.90;;;;;;20727072;28;20537;-40
2023/11/06 01:51:38;;;;;;;7.07;2.38;;;9.90;99.90;;;;;;20724349;28;20068;-40
2023/11/06 02:01:45;;;;;;;8.60;2.50;;;9.90;99.90;;;;;;20720518;28;20087;-41
2023/11/06 02:11:46;;;;;;;9.10;2.67;;;9.90;99.90;;;;;;20720536;28;20053;-41
2023/11/06 02:21:53;;;;;;;6.32;2.42;;;9.90;99.90;;;;;;20724341;28;21586;-41
2023/11/06 02:31:53;;;;;;;7.20;3.17;;;9.90;99.90;;;;;;20725175;28;20056;-40
2023/11/06 02:41:54;;;;;;;6.88;3.58;;;9.90;99.90;;;;;;20722319;28;20502;-40
2023/11/06 02:51:54;;;;;;;9.75;3.58;;;9.90;99.90;;;;;;20719749;28;20560;-41
2023/11/06 03:01:55;;;;;;;9.80;4.43;;;9.90;99.90;;;;;;20717345;28;20072;-40
2023/11/06 03:11:56;;;;;;;9.48;2.30;;;9.80;99.90;;;;;;20714396;28;20065;-40
2023/11/06 03:21:57;;;;;;;9.50;1.85;;;9.90;99.90;;;;;;20710603;28;20086;-40
2023/11/06 03:31:58;;;;;;;7.00;2.22;;;9.80;99.90;;;;;;20712381;28;20393;-40
2023/11/06 03:41:58;;;;;;;6.15;2.08;;;9.70;99.90;;;;;;20714732;28;20042;-40
2023/11/06 03:51:59;;;;;;;5.45;1.77;;;9.80;99.90;;;;;;20716630;28;20212;-40
2023/11/06 04:01:59;;;;;;;6.73;1.43;;;9.70;99.90;;;;;;20716709;28;20094;-40
2023/11/06 04:12:00;;;;;;;5.75;1.80;;;9.60;99.90;;;;;;20710258;28;20545;-40
2023/11/06 04:22:01;;;;;;;6.68;1.75;;;9.40;99.90;;;;;;20730431;28;20048;-40
2023/11/06 04:32:01;;;;;;;3.38;1.20;;;9.40;99.90;;;;;;20732919;28;20041;-40
2023/11/06 04:42:02;;;;;;;6.72;1.75;;;9.50;99.90;;;;;;20732649;28;20045;-40
2023/11/06 04:52:03;;;;;;;6.05;1.35;;;9.40;99.90;;;;;;20732334;28;20049;-40
2023/11/06 05:02:04;;;;;;;8.13;1.63;;;9.40;99.90;;;;;;20723727;28;20096;-40
2023/11/06 05:12:06;;;;;;;7.55;1.60;;;9.40;99.90;;;;;;20727805;28;20338;-40
2023/11/06 05:22:06;;;;;;;9.00;1.20;;;9.30;99.90;;;;;;20732473;28;20049;-40
2023/11/06 05:32:07;;;;;;;3.17;0.98;;;9.40;99.90;;;;;;20727047;28;20045;-40
2023/11/06 05:42:07;;;;;;;8.57;1.52;;;9.40;96.60;;;;;;20721771;28;20057;-40
2023/11/06 05:52:09;;;;;;;8.25;1.25;;;9.40;94.20;;;;;;20727540;28;20057;-40
2023/11/06 06:02:09;;;;;;;6.32;1.10;;;9.40;87.60;;;;;;20726080;28;22870;-40
2023/11/06 06:12:11;;;;;;;7.53;1.40;;;9.50;90.60;;;;;;20729404;28;20440;-40
2023/11/06 06:22:11;;;;;;;5.93;1.80;;;9.50;87.30;;;;;;20733128;28;21084;-40
2023/11/06 06:32:14;;;;;;;6.25;1.92;;;9.60;82.10;;;;;;20744393;28;20085;-40
2023/11/06 06:42:16;;;;;;;6.57;1.77;;;9.60;83.30;;;;;;20742465;28;20049;-40
2023/11/06 06:52:16;;;;;;;11.40;2.50;;;9.50;91.40;;;;;;20739198;28;20571;-40
2023/11/06 07:02:17;;;;;;;6.47;1.80;;;9.40;92.80;;;;;;20735844;28;20037;-40
2023/11/06 07:12:18;;;;;;;7.23;1.90;;;9.40;95.00;;;;;;20738145;28;20379;-40
2023/11/06 07:22:18;;;;;;;8.83;1.63;;;9.50;81.80;;;;;;20729644;28;20042;-40
2023/11/06 07:32:19;;;;;;;5.30;1.30;;;9.50;67.00;;;;;;20730659;28;20467;-40
2023/11/06 07:42:19;;;;;;;6.40;1.17;;;9.60;55.20;;;;;;20734459;28;21167;-40
2023/11/06 07:52:21;;;;;;;6.63;1.40;;;9.60;42.70;;;;;;20738113;28;20222;-40
2023/11/06 08:02:22;;;;;;;7.57;1.30;;;9.70;31.40;;;;;;20744548;28;20119;-40
2023/11/06 08:12:22;;;;;;;6.45;1.13;;;9.80;26.10;;;;;;20751275;28;20045;-40
2023/11/06 08:22:23;;;;;;;5.38;1.05;;;10.00;16.30;;;;;;20762912;28;20052;-40
2023/11/06 08:32:24;;;;;;;7.00;1.27;;;10.20;14.90;;;;;;20745524;28;20041;-40
2023/11/06 08:42:25;;;;;;;9.63;1.42;;;10.50;5.00;;;;;;20741472;28;20176;-40
2023/11/06 08:52:26;;;;;;;8.07;2.35;;;10.70;1.30;;;;;;20749884;28;20141;-40
2023/11/06 09:02:26;;;;;;;12.38;2.10;;;10.90;1.30;;;;;;20743230;28;20635;-40
2023/11/06 09:12:27;;;;;;;12.45;2.58;;;11.00;1.00;;;;;;20747938;28;20412;-40
2023/11/06 09:22:28;;;;;;;14.07;3.63;;;10.80;1.00;;;;;;20735898;28;20037;-39
2023/11/06 09:32:28;;;;;;;8.23;2.25;;;11.00;1.00;;;;;;20737885;28;20144;-40
2023/11/06 09:42:29;;;;;;;10.65;1.88;;;11.10;1.00;;;;;;20735315;28;20052;-40
2023/11/06 09:52:32;;;;;;;7.72;1.30;;;11.20;1.00;;;;;;20734805;28;20147;-40
2023/11/06 10:02:32;;;;;;;7.72;1.92;;;11.30;1.00;;;;;;20731368;28;20041;-40
2023/11/06 10:12:33;;;;;;;7.50;1.48;;;11.40;1.00;;;;;;20742603;28;20045;-40
2023/11/06 10:22:34;;;;;;;6.15;1.60;;;11.60;1.00;;;;;;20730557;28;20037;-40
2023/11/06 10:32:35;;;;;;;6.13;1.33;;;11.90;1.00;;;;;;20735699;28;20060;-40
2023/11/06 10:42:38;;;;;;;10.73;1.55;;;11.80;1.00;;;;;;20733572;28;20049;-40
2023/11/06 10:52:39;;;;;;;9.75;1.70;;;11.80;1.00;;;;;;20735848;28;20487;-40
2023/11/06 11:02:45;;;;;;;8.90;1.80;;;11.80;1.00;;;;;;20732071;28;20041;-39
2023/11/06 11:12:51;;;;;;;8.30;2.15;;;11.90;1.00;;;;;;20738926;28;20577;-39
2023/11/06 11:23:06;;;;;;;5.35;1.42;;;11.90;1.00;;;;;;20743765;28;20619;-39
2023/11/06 11:33:07;;;;;;;5.10;1.17;;;11.80;1.00;;;;;;20744049;28;20148;-40
2023/11/06 11:43:38;;;;;;;6.45;1.08;;;11.70;1.00;;;;;;20736003;28;20057;-39
2023/11/06 11:53:39;;;;;;;7.15;1.35;;;11.70;1.00;;;;;;20741774;28;20042;-39
2023/11/06 12:03:40;;;;;;;9.73;1.25;;;11.50;1.00;;;;;;20744719;28;20038;-41
2023/11/06 12:13:40;;;;;;;9.77;1.70;;;11.60;1.00;;;;;;20741153;28;20084;-41
2023/11/06 12:23:41;;;;;;;8.18;1.50;;;11.70;1.00;;;;;;20746996;28;20115;-40
2023/11/06 12:33:42;;;;;;;6.38;1.13;;;11.60;1.00;;;;;;20746000;28;20042;-41
2023/11/06 12:43:42;;;;;;;7.30;1.20;;;11.90;1.00;;;;;;20758805;28;20045;-41
2023/11/06 12:53:46;;;;;;;13.27;2.85;;;12.00;1.00;;;;;;20756140;28;20042;-41
2023/11/06 13:03:48;;;;;;;4.80;0.95;;;12.10;1.00;;;;;;20755701;28;20053;-41
2023/11/06 13:13:48;;;;;;;5.05;0.93;;;12.10;1.00;;;;;;20758164;28;20046;-41
2023/11/06 13:23:49;;;;;;;4.88;0.90;;;12.10;1.00;;;;;;20753924;28;20045;-41
2023/11/06 13:33:50;;;;;;;5.90;1.10;;;12.10;1.00;;;;;;20753692;28;20511;-41
2023/11/06 13:43:50;;;;;;;3.40;0.75;;;11.90;1.00;;;;;;20755299;28;20045;-41
2023/11/06 13:53:51;;;;;;;5.82;0.98;;;11.90;1.00;;;;;;20752335;28;20068;-41
2023/11/06 14:03:52;;;;;;;5.82;1.13;;;11.90;1.00;;;;;;20754638;28;20053;-40
2023/11/06 14:13:54;;;;;;;5.05;0.80;;;12.00;1.00;;;;;;20754363;28;20052;-40
2023/11/06 14:23:57;;;;;;;6.50;0.80;;;12.20;1.00;;;;;;20752384;28;20045;-41
2023/11/06 14:33:58;;;;;;;5.32;1.02;;;12.40;1.00;;;;;;20750489;28;20049;-41
2023/11/06 14:43:59;;;;;;;4.97;1.27;;;12.80;1.00;;;;;;20747920;28;20095;-41
2023/11/06 14:54:00;;;;;;;4.68;0.98;;;12.70;1.00;;;;;;20748283;28;20117;-41
2023/11/06 15:04:01;;;;;;;4.78;1.10;;;12.40;1.00;;;;;;20750004;28;20492;-41
2023/11/06 15:14:01;;;;;;;5.60;1.52;;;12.10;1.00;;;;;;20752386;28;20503;-41
2023/11/06 15:24:02;;;;;;;6.53;1.40;;;11.90;1.00;;;;;;20750202;28;20076;-41
2023/11/06 15:34:03;;;;;;;7.20;1.70;;;11.70;1.00;;;;;;20747636;28;20604;-41
2023/11/06 15:44:04;;;;;;;4.70;1.77;;;11.60;1.00;;;;;;20748831;28;20453;-41
2023/11/06 15:54:06;;;;;;;5.25;1.50;;;11.50;1.00;;;;;;20743824;28;20045;-41
2023/11/06 16:04:07;;;;;;;7.22;1.90;;;11.30;1.00;;;;;;20747402;28;20397;-41
2023/11/06 16:14:08;;;;;;;8.15;3.15;;;11.30;1.00;;;;;;20757751;28;20061;-41
2023/11/06 16:24:09;;;;;;;11.63;3.97;;;11.30;1.00;;;;;;20760066;28;20041;-40
2023/11/06 16:34:10;;;;;;;10.18;3.97;;;11.30;1.00;;;;;;20758342;28;20050;-41
2023/11/06 16:44:11;;;;;;;6.50;1.70;;;11.20;1.00;;;;;;20759271;28;20572;-41
2023/11/06 16:54:12;;;;;;;12.77;2.10;;;11.20;3.60;;;;;;20756294;28;20058;-41
2023/11/06 17:04:13;;;;;;;8.95;3.33;;;11.00;7.00;;;;;;20755817;28;20119;-41
2023/11/06 17:14:14;;;;;;;7.72;2.13;;;10.90;13.10;;;;;;20756324;28;20141;-41
2023/11/06 17:24:14;;;;;;;6.93;2.13;;;10.90;13.90;;;;;;20755052;28;20072;-41
2023/11/06 17:34:15;;;;;;;6.68;2.30;;;10.90;17.40;;;;;;20754677;28;20308;-41
2023/11/06 17:44:15;;;;;;;5.85;1.77;;;10.80;19.40;;;;;;20746303;28;20060;-41
2023/11/06 17:54:16;;;;;;;7.05;2.05;;;10.80;20.80;;;;;;20722579;28;20037;-41
2023/11/06 18:04:17;;;;;;;7.32;2.03;;;10.70;22.60;;;;;;20728965;28;20033;-40
2023/11/06 18:14:18;;;;;;;10.88;2.33;;;10.70;22.90;;;;;;20727481;28;20552;-41
2023/11/06 18:24:20;;;;;;;14.88;2.75;;;10.50;24.50;;;;;;20722365;28;20150;-40
2023/11/06 18:34:23;;;;;;;6.75;2.78;;;10.50;26.40;;;;;;20723814;28;20506;-40
2023/11/06 18:44:24;;;;;;;8.15;2.80;;;10.50;25.80;;;;;;20673818;28;20664;-40
2023/11/06 18:54:24;;;;;;;10.17;3.83;;;10.40;30.70;;;;;;20648380;28;20410;-41
2023/11/06 19:04:25;;;;;;;17.35;7.72;;;10.30;33.40;;;;;;20654220;28;20495;-41
2023/11/06 19:14:26;;;;;;;12.70;4.25;;;10.30;38.80;;;;;;20656856;28;20128;-41
2023/11/06 19:24:27;;;;;;;11.88;3.42;;;10.30;46.40;;;;;;20657819;28;20500;-41
2023/11/06 19:34:28;;;;;;;16.77;6.22;;;10.40;45.60;;;;;;20720633;28;20509;-40
2023/11/06 19:44:28;;;;;;;10.15;2.97;;;10.20;55.00;;;;;;20674394;28;20046;-41
2023/11/06 19:54:29;;;;;;;10.40;3.38;;;10.20;50.60;;;;;;20672719;28;20076;-41
2023/11/06 20:04:29;;;;;;;11.85;3.40;;;10.20;56.10;;;;;;20681267;28;20046;-41
2023/11/06 20:14:30;;;;;;;10.88;3.42;;;10.10;68.50;;;;;;20749845;28;20033;-41
2023/11/06 20:24:31;;;;;;;46.67;18.63;;;10.00;79.30;;;;;;20738163;28;20076;-40
2023/11/06 20:34:31;;;;;;;12.27;4.53;;;10.00;82.30;;;;;;20732568;28;20512;-41
2023/11/06 20:44:32;;;;;;;20.23;9.13;;;10.10;79.40;;;;;;20737355;28;20070;-41
2023/11/06 20:54:32;;;;;;;14.45;5.30;;;10.00;84.60;;;;;;20733425;28;20131;-41
2023/11/06 21:04:33;;;;;;;8.20;2.83;;;10.00;94.40;;;;;;20732441;28;20245;-41
2023/11/06 21:14:35;;;;;;;9.88;3.00;;;9.80;87.40;;;;;;20734421;28;20275;-41
2023/11/06 21:24:37;;;;;;;9.32;3.33;;;9.80;84.90;;;;;;20729582;28;20095;-41
2023/11/06 21:34:39;;;;;;;10.75;3.50;;;9.70;79.90;;;;;;20731204;28;20544;-41
2023/11/06 21:44:39;;;;;;;8.32;3.30;;;9.70;80.20;;;;;;20656121;28;20367;-41
2023/11/06 21:54:41;;;;;;;9.25;3.70;;;9.50;77.50;;;;;;20669718;28;20496;-41
2023/11/06 22:04:43;;;;;;;8.95;3.95;;;9.40;94.00;;;;;;20664434;28;20069;-41
2023/11/06 22:14:43;;;;;;;8.35;3.70;;;9.30;96.50;;;;;;20667942;28;20034;-41
2023/11/06 22:24:44;;;;;;;12.15;4.43;;;9.30;97.30;;;;;;20649153;28;20158;-41
2023/11/06 22:34:45;;;;;;;12.30;4.03;;;9.30;99.90;;;;;;20655721;28;20040;-41
2023/11/06 22:44:46;;;;;;;8.57;4.22;;;9.40;94.80;;;;;;20661991;28;20046;-41
2023/11/06 22:54:46;;;;;;;13.98;4.90;;;9.40;98.00;;;;;;20657486;28;20104;-41
2023/11/06 23:04:47;;;;;;;8.88;4.10;;;9.50;94.50;;;;;;20663545;28;20456;-41
2023/11/06 23:14:48;;;;;;;10.20;4.68;;;9.60;84.10;;;;;;20648879;28;20116;-40
2023/11/06 23:24:48;;;;;;;10.23;4.47;;;9.50;92.20;;;;;;20647661;28;20541;-41
2023/11/06 23:34:49;;;;;;;14.18;4.57;;;9.40;96.00;;;;;;20668239;28;20053;-41
2023/11/06 23:44:50;;;;;;;10.75;4.50;;;9.40;98.20;;;;;;20716046;28;20124;-40
2023/11/06 23:54:51;;;;;;;12.00;4.13;;;9.40;97.90;;;;;;20725951;28;20068;-41
